Fleming-Mason (FGX)

 

Airport Diagram
No Airport Diagram Available
Current Weather/Forecast (MVFR Conditions)
METAR KFGX 270355Z AUTO 02004KT 10SM OVC013 09/07 A3028 RMK AO2 T00900072
TAF

Airport Information

All Charts
General
Chart Name View
TAKEOFF MINIMUMS
ALTERNATE MINIMUMS
TAKEOFF MINIMUMS
ALTERNATE MINIMUMS

Approaches
Chart Name Download
RNAV (GPS) RWY 07
RNAV (GPS) RWY 25
VOR/DME-A
RNAV (GPS) RWY 07
RNAV (GPS) RWY 25
VOR/DME-A


Airport Statistics
Departures Arrivals Local
All Collected Stats since June 2016: 5 4 0
2020 Stats: 2 1 0
October Stats: 2 1 0

Inbound Traffic (Arrivals) - 0

No inbound traffic.


Outbound Traffic (Departures) - 0

No outbound traffic.


Local Traffic (Pattern) - 0

No local traffic.